Time;durP1;ratioP1;P1;durP2;ratioP2;P2;SDS_P1;SDS_P2;PMS_P1;PMS_P2;Temp;Humidity;BMP_temperature;BMP_pressure;BME280_temperature;BME280_humidity;BME280_pressure;Samples;Min_cycle;Max_cycle;Signal;HPM_P1;HPM_P2
2022/04/22 00:01:55;;;;;;;0.33;0.20;;;;;;;9.29;98.50;99284.97;5094345;28;20468;-55
2022/04/22 00:04:21;;;;;;;0.40;0.40;;;;;;;9.33;98.82;99294.53;5094243;28;20514;-55
2022/04/22 00:06:48;;;;;;;0.60;0.60;;;;;;;9.25;98.72;99290.44;5093930;28;20503;-55
2022/04/22 00:09:15;;;;;;;0.30;0.20;;;;;;;9.31;98.56;99280.44;5093134;28;20481;-55
2022/04/22 00:11:41;;;;;;;0.93;0.93;;;;;;;9.20;99.58;99278.25;5094210;28;20492;-55
2022/04/22 00:14:08;;;;;;;0.30;0.20;;;;;;;9.30;99.52;99275.22;5094216;28;20529;-55
2022/04/22 00:16:35;;;;;;;1.70;0.93;;;;;;;9.29;99.32;99273.50;5094015;28;20516;-56
2022/04/22 00:19:02;;;;;;;0.40;0.30;;;;;;;9.30;99.24;99272.56;5093967;28;20456;-55
2022/04/22 00:21:28;;;;;;;0.30;0.20;;;;;;;9.16;100.00;99278.41;5093722;28;20831;-55
2022/04/22 00:23:55;;;;;;;0.30;0.20;;;;;;;9.26;99.22;99266.53;5093853;28;20453;-55
2022/04/22 00:26:22;;;;;;;0.30;0.20;;;;;;;9.11;100.00;99270.66;5093504;28;21018;-55
2022/04/22 00:28:49;;;;;;;0.30;0.20;;;;;;;9.18;100.00;99266.84;5093606;28;20460;-56
2022/04/22 00:31:15;;;;;;;0.50;0.50;;;;;;;9.20;99.57;99256.19;5093874;28;20515;-55
2022/04/22 00:33:42;;;;;;;0.30;0.20;;;;;;;9.34;99.62;99259.13;5093741;28;20475;-55
2022/04/22 00:36:09;;;;;;;0.30;0.20;;;;;;;9.26;99.78;99257.72;5093419;28;20938;-56
2022/04/22 00:38:41;;;;;;;0.30;0.20;;;;;;;9.29;99.67;99257.56;5094297;28;20526;-55
2022/04/22 00:41:08;;;;;;;0.30;0.20;;;;;;;9.27;99.43;99257.66;5093695;28;20891;-56
2022/04/22 00:43:50;;;;;;;0.30;0.30;;;;;;;9.17;100.00;99249.19;5092464;28;20480;-56
2022/04/22 00:46:17;;;;;;;0.50;0.50;;;;;;;9.13;100.00;99252.03;5093639;28;20441;-56
2022/04/22 00:48:44;;;;;;;0.30;0.30;;;;;;;9.11;100.00;99253.88;5093729;28;20444;-55
2022/04/22 00:51:12;;;;;;;0.30;0.20;;;;;;;8.94;100.00;99251.88;5093242;28;20985;-55
2022/04/22 00:53:45;;;;;;;0.43;0.40;;;;;;;9.13;100.00;99244.94;5093215;28;20455;-55
2022/04/22 00:56:12;;;;;;;2.73;0.67;;;;;;;8.99;100.00;99246.41;5093408;28;20721;-55
2022/04/22 00:58:41;;;;;;;1.70;1.30;;;;;;;9.11;100.00;99244.13;5093437;28;20445;-55
2022/04/22 01:01:08;;;;;;;0.40;0.40;;;;;;;9.22;100.00;99240.19;5093140;28;20453;-56
2022/04/22 01:03:35;;;;;;;0.90;0.90;;;;;;;9.06;100.00;99232.88;5093222;28;20953;-55
2022/04/22 01:11:37;;;;;;;0.30;0.20;;;;;;;9.33;100.00;99233.56;5079697;28;20843;-56
2022/04/22 01:14:06;;;;;;;0.30;0.20;;;;;;;9.27;100.00;99230.25;5093209;28;20510;-55
2022/04/22 01:16:34;;;;;;;0.40;0.40;;;;;;;9.11;100.00;99222.06;5093195;28;20551;-55
2022/04/22 01:19:01;;;;;;;2.50;2.30;;;;;;;9.17;100.00;99213.84;5092970;28;20500;-56
2022/04/22 01:21:27;;;;;;;4.43;1.13;;;;;;;9.18;100.00;99216.47;5092763;28;20469;-56
2022/04/22 01:23:54;;;;;;;0.30;0.20;;;;;;;9.26;100.00;99217.94;5092873;28;21014;-56
2022/04/22 01:26:20;;;;;;;0.40;0.40;;;;;;;9.27;100.00;99209.06;5092789;28;20457;-56
2022/04/22 01:28:48;;;;;;;0.40;0.20;;;;;;;9.29;99.82;99207.19;5092929;28;20445;-56
2022/04/22 01:31:14;;;;;;;0.30;0.20;;;;;;;9.26;99.97;99210.84;5092906;28;20469;-55
2022/04/22 01:33:41;;;;;;;0.30;0.20;;;;;;;9.13;100.00;99206.97;5092748;28;20449;-55
2022/04/22 01:36:08;;;;;;;0.40;0.20;;;;;;;9.09;100.00;99206.22;5092128;28;20453;-55
2022/04/22 01:38:35;;;;;;;0.30;0.20;;;;;;;9.03;100.00;99202.94;5092395;28;20833;-55
2022/04/22 01:41:02;;;;;;;0.60;0.60;;;;;;;9.09;100.00;99198.28;5092696;28;20472;-55
2022/04/22 01:43:29;;;;;;;4.93;1.70;;;;;;;9.03;100.00;99203.81;5092500;28;20445;-56
2022/04/22 01:45:55;;;;;;;0.30;0.20;;;;;;;8.77;100.00;99196.00;5091331;28;20478;-55
2022/04/22 01:48:22;;;;;;;1.03;1.03;;;;;;;8.86;100.00;99196.53;5092454;28;20445;-55
2022/04/22 01:50:49;;;;;;;0.30;0.20;;;;;;;8.87;100.00;99197.38;5092456;28;20453;-55
2022/04/22 01:53:15;;;;;;;0.30;0.20;;;;;;;8.89;100.00;99201.69;5092096;28;20806;-56
2022/04/22 01:55:42;;;;;;;0.30;0.20;;;;;;;9.08;100.00;99207.16;5092587;28;20441;-56
2022/04/22 01:58:09;;;;;;;2.40;1.63;;;;;;;8.82;100.00;99202.88;5092019;28;21427;-55
2022/04/22 02:00:35;;;;;;;0.30;0.20;;;;;;;8.83;100.00;99182.53;5092072;28;20551;-55
2022/04/22 02:03:02;;;;;;;0.50;0.50;;;;;;;8.68;100.00;99197.25;5091953;28;20522;-56
2022/04/22 02:05:29;;;;;;;0.30;0.20;;;;;;;8.75;100.00;99193.44;5092041;28;20929;-56
2022/04/22 02:07:55;;;;;;;0.40;0.30;;;;;;;8.87;100.00;99187.66;5092197;28;20445;-55
2022/04/22 02:10:22;;;;;;;0.50;0.40;;;;;;;8.80;100.00;99183.53;5092138;28;20449;-55
2022/04/22 02:12:49;;;;;;;0.57;0.57;;;;;;;8.80;100.00;99186.19;5090715;28;20484;-56
2022/04/22 02:15:18;;;;;;;0.30;0.20;;;;;;;8.81;100.00;99190.56;5092173;28;20535;-56
2022/04/22 02:17:45;;;;;;;0.30;0.20;;;;;;;8.76;100.00;99183.69;5091759;28;21015;-55
2022/04/22 02:20:12;;;;;;;0.30;0.20;;;;;;;8.69;100.00;99176.91;5091738;28;20524;-55
2022/04/22 02:22:39;;;;;;;0.30;0.20;;;;;;;8.68;100.00;99173.41;5091817;28;20488;-56
2022/04/22 02:25:07;;;;;;;0.30;0.20;;;;;;;8.62;100.00;99173.63;5091766;28;21022;-56
2022/04/22 02:30:19;;;;;;;0.30;0.20;;;;;;;8.66;100.00;99177.91;5091664;28;20471;-56
2022/04/22 02:32:46;;;;;;;1.60;1.60;;;;;;;8.66;100.00;99177.03;5091561;28;20469;-55
2022/04/22 02:35:13;;;;;;;0.30;0.20;;;;;;;8.72;100.00;99169.72;5091945;28;20473;-56
2022/04/22 02:37:40;;;;;;;0.30;0.20;;;;;;;8.55;100.00;99172.16;5091753;28;20488;-55
2022/04/22 02:40:08;;;;;;;0.30;0.20;;;;;;;8.56;100.00;99165.94;5091720;28;20522;-56
2022/04/22 02:45:28;;;;;;;0.37;0.30;;;;;;;8.63;100.00;99161.25;5091852;28;20494;-56
2022/04/22 02:47:56;;;;;;;1.20;1.20;;;;;;;8.55;100.00;99175.66;5094473;28;20997;-56
2022/04/22 02:50:23;;;;;;;0.93;0.93;;;;;;;8.60;100.00;99157.78;5095802;28;20884;-55
2022/04/22 02:52:50;;;;;;;6.73;1.03;;;;;;;8.61;100.00;99148.94;5094334;28;20469;-56
2022/04/22 02:55:17;;;;;;;3.93;0.87;;;;;;;8.69;100.00;99153.06;5095635;28;20449;-56
2022/04/22 02:57:44;;;;;;;0.30;0.20;;;;;;;8.51;100.00;99147.59;5095421;28;20514;-55
2022/04/22 03:00:13;;;;;;;0.30;0.20;;;;;;;8.57;100.00;99157.94;5095539;28;20983;-55
2022/04/22 03:02:42;;;;;;;0.57;0.57;;;;;;;8.59;100.00;99150.78;5095443;28;20469;-55
2022/04/22 03:05:12;;;;;;;0.50;0.50;;;;;;;8.55;100.00;99151.84;5095709;28;20444;-55
2022/04/22 03:07:39;;;;;;;0.97;0.87;;;;;;;8.53;100.00;99152.81;5095336;28;20505;-55
2022/04/22 03:10:06;;;;;;;0.40;0.40;;;;;;;8.59;100.00;99148.13;5095307;28;20865;-55
2022/04/22 03:12:34;;;;;;;0.60;0.57;;;;;;;8.55;100.00;99148.31;5095141;28;20527;-55
2022/04/22 03:15:02;;;;;;;0.30;0.20;;;;;;;8.50;100.00;99145.00;5094260;28;20528;-55
2022/04/22 03:17:28;;;;;;;0.67;0.67;;;;;;;8.47;100.00;99143.31;5095177;28;21060;-55
2022/04/22 03:19:55;;;;;;;1.80;1.70;;;;;;;8.51;100.00;99142.28;5095306;28;20491;-55
2022/04/22 03:22:22;;;;;;;0.30;0.20;;;;;;;8.51;100.00;99147.59;5094863;28;20468;-55
2022/04/22 03:24:48;;;;;;;0.30;0.20;;;;;;;8.66;100.00;99135.53;5094837;28;20820;-55
2022/04/22 03:27:15;;;;;;;2.60;0.90;;;;;;;8.61;100.00;99135.69;5094879;28;20449;-55
2022/04/22 03:29:42;;;;;;;0.63;0.63;;;;;;;8.67;100.00;99134.59;5095163;28;20453;-55
2022/04/22 03:32:11;;;;;;;0.30;0.20;;;;;;;8.69;100.00;99134.53;5094829;28;20977;-55
2022/04/22 03:34:38;;;;;;;0.40;0.30;;;;;;;8.47;100.00;99134.50;5095001;28;20448;-56
2022/04/22 03:37:06;;;;;;;0.30;0.20;;;;;;;8.60;100.00;99133.97;5094723;28;20543;-56
2022/04/22 03:39:33;;;;;;;1.57;0.67;;;;;;;8.70;100.00;99126.53;5094755;28;20501;-57
2022/04/22 03:41:59;;;;;;;0.30;0.20;;;;;;;8.79;100.00;99122.66;5094846;28;20522;-56
2022/04/22 03:44:26;;;;;;;0.30;0.20;;;;;;;8.82;100.00;99114.56;5094728;28;20449;-56
2022/04/22 03:46:53;;;;;;;0.50;0.40;;;;;;;8.69;100.00;99131.88;5094569;28;20452;-56
2022/04/22 03:49:20;;;;;;;0.30;0.20;;;;;;;8.57;100.00;99131.44;5093586;28;20451;-56
2022/04/22 03:51:47;;;;;;;0.57;0.57;;;;;;;8.59;100.00;99128.72;5094159;28;20838;-56
2022/04/22 03:54:18;;;;;;;1.00;0.40;;;;;;;8.64;100.00;99128.56;5094861;28;20820;-56
2022/04/22 03:59:30;;;;;;;0.30;0.20;;;;;;;8.97;100.00;99126.34;5094012;28;20448;-56
2022/04/22 04:01:57;;;;;;;3.63;3.10;;;;;;;8.94;100.00;99124.69;5094456;28;20480;-56
2022/04/22 04:04:24;;;;;;;0.30;0.20;;;;;;;8.72;100.00;99129.97;5094128;28;20468;-57
2022/04/22 04:06:50;;;;;;;0.30;0.20;;;;;;;8.87;100.00;99125.84;5094405;28;20445;-57
2022/04/22 04:17:38;;;;;;;0.50;0.50;;;;;;;9.06;100.00;99124.19;5094109;28;20489;-57
2022/04/22 04:25:36;;;;;;;0.50;0.50;;;;;;;8.93;100.00;99115.00;5089482;28;20461;-56
2022/04/22 04:28:04;;;;;;;0.30;0.30;;;;;;;9.25;100.00;99118.97;5093954;28;20502;-57
2022/04/22 04:30:30;;;;;;;10.77;1.90;;;;;;;9.22;98.62;99123.53;5093650;28;20937;-56
2022/04/22 04:32:57;;;;;;;2.00;1.90;;;;;;;8.84;100.00;99131.28;5093905;28;20465;-56
2022/04/22 04:35:24;;;;;;;0.80;0.80;;;;;;;8.55;100.00;99127.13;5093663;28;20510;-57
2022/04/22 04:37:50;;;;;;;1.40;0.40;;;;;;;8.59;100.00;99124.28;5093478;28;20539;-57
2022/04/22 04:40:17;;;;;;;0.40;0.33;;;;;;;8.64;100.00;99123.28;5093687;28;20452;-57
2022/04/22 04:42:44;;;;;;;0.30;0.20;;;;;;;8.90;99.78;99123.91;5093725;28;20469;-57
2022/04/22 04:45:10;;;;;;;0.67;0.67;;;;;;;8.46;100.00;99131.00;5093638;28;20475;-57
2022/04/22 04:47:41;;;;;;;0.30;0.20;;;;;;;8.75;100.00;99134.28;5093568;28;20473;-57
2022/04/22 04:50:08;;;;;;;0.30;0.20;;;;;;;8.23;100.00;99129.22;5093945;28;20449;-57
2022/04/22 04:52:36;;;;;;;0.30;0.20;;;;;;;8.42;100.00;99133.81;5092173;28;20469;-57
2022/04/22 04:55:08;;;;;;;0.30;0.20;;;;;;;8.50;100.00;99134.41;5093206;28;20857;-57
2022/04/22 04:57:35;;;;;;;2.83;2.00;;;;;;;8.35;100.00;99130.53;5093347;28;21058;-57
2022/04/22 05:00:06;;;;;;;1.07;1.07;;;;;;;8.27;100.00;99135.25;5093332;28;20445;-57
2022/04/22 05:02:33;;;;;;;0.40;0.40;;;;;;;8.03;100.00;99135.22;5093063;28;21035;-57
2022/04/22 05:05:00;;;;;;;0.40;0.30;;;;;;;8.14;100.00;99137.47;5093162;28;20548;-56
2022/04/22 05:07:27;;;;;;;0.30;0.20;;;;;;;8.23;100.00;99123.91;5092907;28;20960;-56
2022/04/22 05:09:54;;;;;;;19.47;1.23;;;;;;;8.54;100.00;99120.97;5092309;28;20514;-56
2022/04/22 05:12:20;;;;;;;0.30;0.20;;;;;;;8.90;100.00;99115.09;5093194;28;20546;-57
2022/04/22 05:14:47;;;;;;;0.30;0.20;;;;;;;9.26;98.56;99117.19;5093028;28;20449;-57
2022/04/22 05:17:14;;;;;;;1.60;1.60;;;;;;;9.78;95.83;99127.28;5091725;28;20499;-56
2022/04/22 05:19:40;;;;;;;0.87;0.87;;;;;;;9.71;95.36;99125.81;5093122;28;20452;-57
2022/04/22 05:22:07;;;;;;;0.30;0.20;;;;;;;10.03;93.92;99112.91;5092858;28;20464;-57
2022/04/22 05:24:37;;;;;;;0.40;0.30;;;;;;;10.52;92.19;99113.31;5085774;28;20510;-56
2022/04/22 05:27:04;;;;;;;0.30;0.20;;;;;;;10.63;91.10;99114.53;5091510;28;20453;-56
2022/04/22 05:35:01;;;;;;;0.30;0.20;;;;;;;10.78;90.25;99104.97;5092833;28;20858;-56
2022/04/22 05:37:41;;;;;;;0.30;0.20;;;;;;;11.27;89.17;99115.84;5092346;28;20504;-57
2022/04/22 05:40:09;;;;;;;0.30;0.20;;;;;;;11.27;87.88;99110.53;5092345;28;20441;-57
2022/04/22 05:42:37;;;;;;;0.73;0.73;;;;;;;11.87;86.12;99110.97;5092318;28;20915;-57
2022/04/22 05:45:06;;;;;;;0.30;0.20;;;;;;;12.07;85.20;99107.28;5092676;28;20502;-56
2022/04/22 05:47:33;;;;;;;3.80;1.07;;;;;;;11.88;85.12;99112.69;5092624;28;20473;-57
2022/04/22 05:50:00;;;;;;;0.30;0.20;;;;;;;11.65;86.45;99108.56;5092580;28;20495;-56
2022/04/22 05:52:27;;;;;;;0.30;0.20;;;;;;;11.71;85.67;99105.56;5092282;28;20547;-57
2022/04/22 05:54:54;;;;;;;0.30;0.20;;;;;;;11.94;85.61;99098.22;5092074;28;20589;-56
2022/04/22 05:57:21;;;;;;;23.13;1.63;;;;;;;11.93;85.22;99104.50;5092377;28;20506;-56
2022/04/22 05:59:48;;;;;;;0.30;0.20;;;;;;;12.12;84.44;99111.41;5092106;28;20502;-57
2022/04/22 06:02:14;;;;;;;0.70;0.67;;;;;;;12.32;83.81;99106.78;5092182;28;20469;-57
2022/04/22 06:04:41;;;;;;;0.30;0.20;;;;;;;12.51;83.12;99099.50;5092049;28;20453;-57
2022/04/22 06:07:08;;;;;;;5.30;1.53;;;;;;;12.34;84.12;99097.78;5092013;28;20453;-57
2022/04/22 06:12:19;;;;;;;1.23;1.23;;;;;;;12.46;83.99;99098.88;5092279;28;20469;-57
2022/04/22 06:14:46;;;;;;;0.30;0.20;;;;;;;12.06;84.83;99098.44;5092189;28;20512;-56
2022/04/22 06:17:13;;;;;;;0.30;0.20;;;;;;;12.12;85.00;99090.09;5092085;28;20445;-57
2022/04/22 06:19:40;;;;;;;2.73;1.37;;;;;;;12.27;85.13;99092.84;5091861;28;21017;-57
2022/04/22 06:22:06;;;;;;;0.30;0.20;;;;;;;11.93;84.65;99093.84;5091737;28;20518;-57
2022/04/22 06:24:33;;;;;;;0.40;0.20;;;;;;;11.97;85.57;99088.25;5084974;28;20453;-57
2022/04/22 06:27:00;;;;;;;1.30;1.03;;;;;;;12.20;84.66;99083.47;5091926;28;20456;-57
2022/04/22 06:29:27;;;;;;;2.67;2.57;;;;;;;12.21;85.13;99090.53;5092051;28;20449;-57
2022/04/22 06:31:54;;;;;;;0.33;0.27;;;;;;;11.85;85.56;99086.25;5091844;28;20495;-57
2022/04/22 06:34:22;;;;;;;0.40;0.40;;;;;;;11.86;86.21;99080.84;5091904;28;20449;-57
2022/04/22 06:36:49;;;;;;;0.40;0.40;;;;;;;11.95;86.15;99078.63;5092338;28;20453;-56
2022/04/22 06:39:16;;;;;;;0.30;0.20;;;;;;;11.82;85.33;99070.44;5091809;28;20895;-56
2022/04/22 06:45:46;;;;;;;0.40;0.30;;;;;;;12.14;84.53;99074.88;5091964;28;20445;-56
2022/04/22 06:47:15;;;;;;;0.40;0.20;;;;;;;11.75;85.18;99069.84;5078837;28;20449;-56
2022/04/22 06:49:42;;;;;;;0.40;0.30;;;;;;;11.80;84.63;99070.53;5092050;28;20506;-56
2022/04/22 06:52:09;;;;;;;0.40;0.30;;;;;;;11.91;84.70;99072.59;5091830;28;20923;-56
2022/04/22 06:54:36;;;;;;;9.93;3.23;;;;;;;11.95;84.94;99076.84;5091709;28;20502;-56
2022/04/22 06:57:04;;;;;;;0.57;0.57;;;;;;;12.36;84.36;99073.72;5091671;28;20453;-56
2022/04/22 06:59:31;;;;;;;4.90;1.07;;;;;;;12.30;84.40;99072.22;5091573;28;20550;-56
2022/04/22 07:01:58;;;;;;;0.30;0.20;;;;;;;12.35;82.38;99064.00;5091625;28;20461;-57
2022/04/22 07:04:25;;;;;;;0.30;0.20;;;;;;;12.26;83.29;99065.34;5091751;28;20445;-56
2022/04/22 07:06:52;;;;;;;0.70;0.60;;;;;;;12.14;82.36;99055.38;5091902;28;20445;-57
2022/04/22 07:09:19;;;;;;;13.03;2.77;;;;;;;12.16;82.56;99053.47;5091531;28;20470;-56
2022/04/22 07:11:50;;;;;;;0.80;0.80;;;;;;;12.17;83.39;99063.19;5091454;28;20473;-56
2022/04/22 07:14:17;;;;;;;0.40;0.30;;;;;;;12.50;81.79;99070.28;5091575;28;20994;-56
2022/04/22 07:16:44;;;;;;;0.63;0.63;;;;;;;12.62;80.84;99058.94;5091712;28;20453;-57
2022/04/22 07:19:11;;;;;;;0.90;0.77;;;;;;;12.65;79.45;99056.94;5091378;28;21021;-56
2022/04/22 07:21:38;;;;;;;3.60;0.73;;;;;;;12.84;79.42;99064.72;5091471;28;20521;-57
2022/04/22 07:24:05;;;;;;;1.03;1.03;;;;;;;12.42;80.72;99060.88;5091280;28;20449;-56
2022/04/22 07:26:32;;;;;;;0.30;0.20;;;;;;;12.57;80.70;99052.97;5091324;28;20464;-57
2022/04/22 07:29:00;;;;;;;0.30;0.20;;;;;;;12.82;79.16;99058.63;5090135;28;21003;-56
2022/04/22 07:31:31;;;;;;;0.40;0.40;;;;;;;12.78;77.87;99051.75;5091697;28;20619;-57
2022/04/22 07:33:58;;;;;;;0.40;0.40;;;;;;;12.85;78.68;99057.59;5094116;28;20448;-56
2022/04/22 07:36:24;;;;;;;0.40;0.30;;;;;;;12.56;79.21;99056.59;5095337;28;20449;-56
2022/04/22 07:38:51;;;;;;;0.40;0.40;;;;;;;12.85;78.50;99058.44;5094743;28;20577;-57
2022/04/22 07:41:20;;;;;;;0.40;0.30;;;;;;;13.00;79.14;99059.38;5095199;28;20471;-57
2022/04/22 07:46:48;;;;;;;0.40;0.30;;;;;;;13.21;77.04;99055.50;5094970;28;20504;-57
2022/04/22 07:49:16;;;;;;;0.30;0.20;;;;;;;13.25;76.88;99053.50;5094951;28;20443;-57
2022/04/22 07:51:43;;;;;;;5.10;2.67;;;;;;;13.16;77.09;99056.69;5094996;28;20584;-57
2022/04/22 07:54:12;;;;;;;1.17;0.97;;;;;;;13.15;77.28;99055.78;5094866;28;20467;-57
2022/04/22 07:56:41;;;;;;;0.40;0.40;;;;;;;13.30;77.28;99056.75;5094650;28;20953;-57
2022/04/22 07:59:09;;;;;;;0.30;0.20;;;;;;;13.28;76.21;99056.81;5094630;28;20484;-57
2022/04/22 08:01:35;;;;;;;4.73;0.83;;;;;;;13.67;75.20;99067.88;5094569;28;20481;-57
2022/04/22 08:04:03;;;;;;;0.30;0.20;;;;;;;13.70;75.76;99063.19;5094282;28;20455;-57
2022/04/22 08:06:30;;;;;;;0.30;0.20;;;;;;;13.68;75.40;99069.59;5094455;28;20506;-57
2022/04/22 08:08:57;;;;;;;0.43;0.43;;;;;;;13.69;76.01;99071.31;5093225;28;20950;-57
2022/04/22 08:11:24;;;;;;;0.30;0.20;;;;;;;13.37;74.83;99070.59;5094281;28;20842;-56
2022/04/22 08:13:50;;;;;;;0.40;0.20;;;;;;;13.48;74.82;99062.81;5094378;28;20449;-57
2022/04/22 08:16:17;;;;;;;0.37;0.30;;;;;;;13.53;74.67;99066.91;5094152;28;20449;-57
2022/04/22 08:18:43;;;;;;;0.60;0.60;;;;;;;13.50;73.65;99058.22;5094273;28;20579;-57
2022/04/22 08:21:10;;;;;;;0.30;0.20;;;;;;;13.49;75.10;99054.69;5093968;28;20511;-57
2022/04/22 08:23:40;;;;;;;0.30;0.20;;;;;;;13.53;75.34;99068.72;5093867;28;20480;-57
2022/04/22 08:26:07;;;;;;;0.30;0.20;;;;;;;13.58;76.01;99050.63;5093733;28;20457;-57
2022/04/22 08:28:34;;;;;;;0.77;0.77;;;;;;;13.95;75.26;99051.88;5092976;28;20468;-57
2022/04/22 08:31:00;;;;;;;0.40;0.37;;;;;;;13.81;73.92;99057.22;5093750;28;20449;-57
2022/04/22 08:33:27;;;;;;;0.30;0.20;;;;;;;13.96;73.79;99052.72;5094297;28;20808;-57
2022/04/22 08:35:54;;;;;;;2.73;1.40;;;;;;;13.94;73.84;99051.00;5094282;28;20514;-57
2022/04/22 08:38:20;;;;;;;0.30;0.20;;;;;;;13.72;73.67;99049.78;5093627;28;20953;-57
2022/04/22 08:40:48;;;;;;;0.30;0.20;;;;;;;13.60;73.78;99049.56;5093912;28;20480;-57
2022/04/22 08:43:15;;;;;;;0.60;0.60;;;;;;;13.79;73.57;99053.78;5093686;28;20915;-57
2022/04/22 08:45:42;;;;;;;0.30;0.20;;;;;;;13.56;74.91;99049.81;5093667;28;20494;-57
2022/04/22 08:50:57;;;;;;;0.40;0.40;;;;;;;14.42;73.68;99037.31;5093550;28;20961;-57
2022/04/22 08:53:29;;;;;;;0.40;0.30;;;;;;;14.06;73.03;99037.84;5093714;28;20445;-57
2022/04/22 08:55:59;;;;;;;6.33;1.40;;;;;;;14.17;72.71;99038.88;5093751;28;20441;-57
2022/04/22 08:58:27;;;;;;;0.40;0.30;;;;;;;14.01;71.69;99035.47;5093459;28;20444;-57
2022/04/22 09:00:57;;;;;;;0.57;0.57;;;;;;;14.31;71.63;99032.66;5093602;28;20492;-57
2022/04/22 09:03:28;;;;;;;0.30;0.20;;;;;;;14.48;71.98;99026.25;5080134;28;20516;-57
2022/04/22 09:06:04;;;;;;;0.30;0.20;;;;;;;14.37;72.38;99034.94;5093322;28;20453;-57
2022/04/22 09:08:31;;;;;;;0.83;0.83;;;;;;;14.48;71.60;99034.28;5091937;28;20487;-57
2022/04/22 09:11:03;;;;;;;0.30;0.30;;;;;;;14.78;70.25;99023.38;5093358;28;20494;-57
2022/04/22 09:13:30;;;;;;;0.30;0.20;;;;;;;14.89;71.40;99028.88;5093467;28;20445;-57
2022/04/22 09:15:58;;;;;;;0.30;0.30;;;;;;;15.41;70.72;99026.22;5092111;28;20477;-57
2022/04/22 09:18:41;;;;;;;0.87;0.87;;;;;;;15.24;70.17;99017.63;5092337;28;20492;-57
2022/04/22 09:21:18;;;;;;;1.03;0.73;;;;;;;15.00;70.19;99018.31;5092735;28;20456;-57
2022/04/22 09:23:49;;;;;;;0.40;0.37;;;;;;;15.02;69.70;99027.09;5093062;28;20452;-57
2022/04/22 09:26:23;;;;;;;0.30;0.20;;;;;;;14.77;69.25;99016.31;5084096;28;20463;-57
2022/04/22 09:29:05;;;;;;;0.30;0.20;;;;;;;14.75;70.19;99000.38;5097835;28;20506;-57
2022/04/22 09:31:48;;;;;;;0.30;0.20;;;;;;;15.11;71.26;98996.19;5092846;28;20464;-57
2022/04/22 09:34:15;;;;;;;0.30;0.20;;;;;;;15.12;69.71;99005.94;5093105;28;20515;-57
2022/04/22 09:44:58;;;;;;;0.60;0.60;;;;;;;15.86;68.03;98977.59;5092817;28;20501;-57
2022/04/22 09:47:27;;;;;;;0.30;0.20;;;;;;;15.77;66.79;98976.44;5092700;28;20499;-57
2022/04/22 09:49:54;;;;;;;0.60;0.60;;;;;;;15.59;65.39;98983.94;5092566;28;20502;-57
2022/04/22 09:52:43;;;;;;;0.50;0.50;;;;;;;15.87;67.56;98979.31;5092347;28;20984;-57
2022/04/22 09:55:15;;;;;;;0.30;0.20;;;;;;;15.61;66.51;98963.25;5092198;28;20502;-57
2022/04/22 09:57:56;;;;;;;0.40;0.20;;;;;;;15.65;66.10;98980.84;5091285;28;20498;-57
2022/04/22 10:00:29;;;;;;;4.13;0.70;;;;;;;15.88;64.97;98968.47;5079404;28;20481;-57
2022/04/22 10:02:56;;;;;;;0.30;0.20;;;;;;;16.05;64.71;98963.75;5092224;28;20924;-57
2022/04/22 10:05:25;;;;;;;0.30;0.20;;;;;;;16.41;66.50;98962.88;5092487;28;20482;-57
2022/04/22 10:07:55;;;;;;;0.30;0.20;;;;;;;16.26;64.22;98956.81;5091972;28;20502;-57
2022/04/22 10:10:39;;;;;;;0.30;0.20;;;;;;;16.45;63.75;98946.44;5092338;28;20444;-57
2022/04/22 10:13:11;;;;;;;0.40;0.40;;;;;;;16.01;64.53;98947.00;5090735;28;20464;-57
2022/04/22 10:15:39;;;;;;;0.50;0.37;;;;;;;16.21;64.25;98951.78;5092401;28;20445;-57
2022/04/22 10:18:08;;;;;;;1.00;1.00;;;;;;;16.06;63.39;98926.09;5092020;28;20449;-57
2022/04/22 10:20:37;;;;;;;1.70;1.60;;;;;;;15.86;64.25;98929.34;5090868;28;20485;-57
2022/04/22 10:23:04;;;;;;;0.40;0.30;;;;;;;15.66;63.48;98917.41;5092117;28;20514;-57
2022/04/22 10:25:31;;;;;;;0.40;0.20;;;;;;;16.38;64.40;98925.56;5091818;28;20557;-57
2022/04/22 10:28:03;;;;;;;0.30;0.20;;;;;;;16.65;62.57;98925.31;5091139;28;20511;-57
2022/04/22 10:30:31;;;;;;;0.30;0.20;;;;;;;16.66;62.48;98924.34;5092083;28;20445;-57
2022/04/22 10:32:59;;;;;;;0.47;0.47;;;;;;;16.33;62.75;98911.63;5091950;28;20825;-57
2022/04/22 10:35:26;;;;;;;0.40;0.33;;;;;;;16.68;62.18;98912.53;5091969;28;20938;-57
2022/04/22 10:37:54;;;;;;;0.30;0.20;;;;;;;16.66;63.04;98909.09;5092076;28;20453;-57
2022/04/22 10:40:23;;;;;;;0.50;0.40;;;;;;;16.57;61.95;98910.63;5091752;28;20495;-57
2022/04/22 10:42:51;;;;;;;0.30;0.20;;;;;;;16.91;62.93;98902.75;5091891;28;21001;-57
2022/04/22 10:48:24;;;;;;;0.73;0.73;;;;;;;16.94;61.22;98902.50;5091868;28;20479;-57
2022/04/22 10:51:02;;;;;;;0.80;0.80;;;;;;;17.08;61.36;98890.69;5091781;28;20464;-57
2022/04/22 10:53:34;;;;;;;1.80;0.80;;;;;;;16.95;59.68;98895.31;5091910;28;20506;-57
2022/04/22 10:56:26;;;;;;;0.40;0.20;;;;;;;16.93;60.72;98876.63;5092088;28;20586;-57
2022/04/22 10:59:20;;;;;;;0.50;0.43;;;;;;;17.21;60.81;98882.53;5080816;28;20441;-57
2022/04/22 11:01:48;;;;;;;5.43;0.73;;;;;;;17.20;59.83;98873.63;5091840;28;20465;-57
2022/04/22 11:04:24;;;;;;;0.83;0.83;;;;;;;17.47;59.23;98878.66;5091942;28;20478;-57
2022/04/22 11:06:51;;;;;;;0.33;0.23;;;;;;;17.48;58.53;98883.91;5079634;28;20451;-57
2022/04/22 11:09:31;;;;;;;0.40;0.20;;;;;;;17.35;58.70;98868.88;5094837;28;20445;-57
2022/04/22 11:11:59;;;;;;;2.37;2.30;;;;;;;17.69;59.96;98878.69;5095738;28;20468;-57
2022/04/22 11:14:27;;;;;;;6.80;1.70;;;;;;;17.54;58.85;98873.63;5095611;28;20472;-57
2022/04/22 11:16:55;;;;;;;1.60;1.47;;;;;;;17.85;59.90;98888.22;5095432;28;20452;-57
2022/04/22 11:19:25;;;;;;;0.60;0.60;;;;;;;17.54;58.90;98874.50;5095247;28;20480;-57
2022/04/22 11:21:55;;;;;;;0.70;0.50;;;;;;;17.53;58.60;98869.25;5095326;28;20473;-57
2022/04/22 11:24:26;;;;;;;0.53;0.53;;;;;;;17.64;57.21;98867.41;5095156;28;20441;-57
2022/04/22 11:27:11;;;;;;;0.50;0.50;;;;;;;17.47;58.66;98860.72;5095355;28;20452;-57
2022/04/22 11:29:43;;;;;;;0.40;0.30;;;;;;;17.40;57.49;98848.72;5083889;28;20437;-57
2022/04/22 11:32:21;;;;;;;0.40;0.40;;;;;;;17.43;57.59;98853.03;5094994;28;20840;-57
2022/04/22 11:35:15;;;;;;;0.40;0.20;;;;;;;17.59;57.30;98856.19;5095419;28;20600;-57
2022/04/22 11:37:42;;;;;;;0.43;0.30;;;;;;;17.83;57.86;98853.38;5083725;28;20881;-57
2022/04/22 11:40:17;;;;;;;2.00;1.73;;;;;;;17.75;57.97;98840.56;5095171;28;20488;-57
2022/04/22 11:42:44;;;;;;;0.30;0.20;;;;;;;17.85;57.93;98842.50;5094728;28;20460;-57
2022/04/22 11:45:16;;;;;;;0.60;0.60;;;;;;;18.08;57.18;98835.22;5094860;28;20449;-57
2022/04/22 11:47:43;;;;;;;0.40;0.20;;;;;;;17.78;57.23;98828.69;5095248;28;20445;-57
2022/04/22 11:50:17;;;;;;;0.40;0.40;;;;;;;18.27;57.23;98830.88;5093667;28;20456;-57
2022/04/22 11:52:44;;;;;;;0.40;0.30;;;;;;;18.13;56.28;98833.03;5094824;28;20465;-57
2022/04/22 11:55:12;;;;;;;0.40;0.30;;;;;;;17.96;55.08;98829.91;5094595;28;20907;-57
2022/04/22 11:57:39;;;;;;;0.50;0.50;;;;;;;18.34;57.37;98826.69;5094888;28;20451;-57
2022/04/22 12:05:50;;;;;;;0.50;0.43;;;;;;;18.05;54.33;98822.88;5094381;28;20934;-57
2022/04/22 12:08:17;;;;;;;1.20;1.10;;;;;;;18.12;55.17;98817.88;5093268;28;20449;-57
2022/04/22 12:10:48;;;;;;;0.40;0.30;;;;;;;18.04;54.42;98811.28;5094191;28;20831;-57
2022/04/22 12:13:16;;;;;;;0.40;0.40;;;;;;;18.11;54.98;98814.31;5094502;28;20522;-57
2022/04/22 12:15:46;;;;;;;0.93;0.93;;;;;;;18.40;54.92;98813.72;5094174;28;20532;-57
2022/04/22 12:18:32;;;;;;;0.40;0.20;;;;;;;18.06;55.99;98813.84;5094009;28;20448;-57
2022/04/22 12:20:59;;;;;;;0.40;0.30;;;;;;;18.21;54.46;98804.47;5094235;28;20488;-57
2022/04/22 12:23:39;;;;;;;0.30;0.20;;;;;;;18.38;55.07;98802.22;5094089;28;20492;-57
2022/04/22 12:26:15;;;;;;;1.70;1.60;;;;;;;18.39;55.41;98810.16;5093925;28;20548;-57
2022/04/22 12:29:06;;;;;;;0.50;0.40;;;;;;;18.88;54.01;98801.47;5094382;28;20490;-57
2022/04/22 12:31:33;;;;;;;0.97;0.43;;;;;;;18.67;52.31;98800.63;5094198;28;20517;-57
2022/04/22 12:34:05;;;;;;;0.40;0.30;;;;;;;18.80;51.22;98795.91;5094165;28;20503;-57
2022/04/22 12:36:59;;;;;;;3.20;2.50;;;;;;;18.85;52.47;98782.88;5095040;28;20863;-58
2022/04/22 12:39:43;;;;;;;0.40;0.27;;;;;;;18.73;52.79;98783.09;5080766;28;20457;-57
2022/04/22 12:42:16;;;;;;;0.53;0.50;;;;;;;18.56;52.90;98777.28;5093782;28;20526;-58
2022/04/22 12:52:08;;;;;;;0.73;0.73;;;;;;;18.95;51.88;98766.78;5092684;28;20453;-58